Time;durP1;ratioP1;P1;durP2;ratioP2;P2;SDS_P1;SDS_P2;PMS_P1;PMS_P2;Temp;Humidity;BMP_temperature;BMP_pressure;BME280_temperature;BME280_humidity;BME280_pressure;Samples;Min_cycle;Max_cycle;Signal;HPM_P1;HPM_P2
2021/01/18 00:02:00;;;;;;;0.60;0.50;;;4.50;99.90;;;5.11;100.00;-20821.25;5011303;28;20469;-63
2021/01/18 00:04:28;;;;;;;0.60;0.50;;;4.50;99.90;;;5.06;100.00;-20819.88;5013015;28;20445;-63
2021/01/18 00:06:56;;;;;;;0.60;0.50;;;4.40;99.90;;;5.05;100.00;-20819.72;5009527;28;20793;-65
2021/01/18 00:09:23;;;;;;;0.60;0.60;;;4.40;99.90;;;5.11;100.00;-20821.25;5010549;28;20433;-64
2021/01/18 00:11:51;;;;;;;0.60;0.60;;;4.40;99.90;;;5.13;100.00;-20821.81;5012834;28;20492;-64
2021/01/18 00:14:18;;;;;;;0.60;0.60;;;4.40;99.90;;;5.08;100.00;-20820.41;5010433;28;20462;-63
2021/01/18 00:16:45;;;;;;;0.60;0.50;;;4.40;99.90;;;5.10;100.00;-20820.97;5012129;28;21000;-64
2021/01/18 00:19:13;;;;;;;0.60;0.50;;;4.40;99.90;;;5.17;100.00;-20822.94;5010398;28;20433;-64
2021/01/18 00:21:45;;;;;;;0.60;0.50;;;4.40;99.90;;;5.09;100.00;-20820.69;5009431;28;20523;-63
2021/01/18 00:24:12;;;;;;;1.07;0.93;;;4.40;99.90;;;5.21;100.00;-20823.91;5010642;28;20437;-64
2021/01/18 00:26:39;;;;;;;0.60;0.53;;;4.40;99.90;;;5.20;100.00;-20823.75;5012233;28;20474;-65
2021/01/18 00:29:07;;;;;;;0.60;0.53;;;4.40;99.90;;;5.14;100.00;-20822.09;5008336;28;20525;-64
2021/01/18 00:31:34;;;;;;;0.60;0.50;;;4.40;99.90;;;5.15;100.00;-20822.38;5010445;28;20430;-63
2021/01/18 00:34:01;;;;;;;0.60;0.50;;;4.40;99.90;;;5.08;100.00;-20820.56;5016098;28;20195;-64
2021/01/18 00:36:28;;;;;;;0.60;0.50;;;4.40;99.90;;;4.97;100.00;-20817.34;5015370;28;20441;-64
2021/01/18 00:38:56;;;;;;;0.60;0.60;;;4.40;99.90;;;5.06;100.00;-20819.88;5014506;28;20441;-64
2021/01/18 00:41:23;;;;;;;0.60;0.60;;;4.40;99.90;;;5.11;100.00;-20821.13;5013873;28;20864;-64
2021/01/18 00:43:50;;;;;;;0.60;0.50;;;4.50;99.90;;;5.24;100.00;-20824.88;5015874;28;20469;-65
2021/01/18 00:46:18;;;;;;;0.60;0.53;;;4.50;99.90;;;5.25;100.00;-20825.16;5013244;28;20253;-64
2021/01/18 00:48:46;;;;;;;0.60;0.60;;;4.50;99.90;;;5.22;100.00;-20824.31;5030734;28;20433;-64
2021/01/18 00:51:14;;;;;;;0.60;0.60;;;4.50;99.90;;;5.27;100.00;-20825.72;5027140;28;20454;-64
2021/01/18 00:53:41;;;;;;;0.60;0.50;;;4.50;99.90;;;5.19;100.00;-20823.34;5030000;28;20445;-64
2021/01/18 00:56:12;;;;;;;0.60;0.60;;;4.40;99.90;;;5.13;100.00;-20821.81;5030413;28;20985;-63
2021/01/18 00:58:45;;;;;;;0.60;0.50;;;4.50;99.90;;;5.30;100.00;-20826.56;5009960;28;20462;-64
2021/01/18 01:01:27;;;;;;;0.60;0.60;;;4.50;99.90;;;5.17;100.00;-20822.78;5028997;28;20441;-63
2021/01/18 01:03:55;;;;;;;0.60;0.50;;;4.50;99.90;;;5.32;100.00;-20827.09;5030180;28;20826;-64
2021/01/18 01:06:22;;;;;;;0.60;0.50;;;4.50;99.90;;;5.26;100.00;-20825.28;5015077;28;20434;-64
2021/01/18 01:08:49;;;;;;;0.60;0.50;;;4.50;99.90;;;5.18;100.00;-20823.06;5014832;28;20426;-64
2021/01/18 01:11:16;;;;;;;0.90;0.90;;;4.40;99.90;;;5.16;100.00;-20822.50;5014832;28;20430;-64
2021/01/18 01:13:43;;;;;;;0.60;0.50;;;4.50;99.90;;;5.16;100.00;-20822.66;5014418;28;20857;-63
2021/01/18 01:16:10;;;;;;;0.70;0.60;;;4.40;99.90;;;5.03;100.00;-20819.03;5014752;28;20507;-66
2021/01/18 01:18:37;;;;;;;0.70;0.50;;;4.40;99.90;;;5.12;100.00;-20821.53;5014113;28;20462;-64
2021/01/18 01:21:05;;;;;;;0.60;0.60;;;4.40;99.90;;;5.11;100.00;-20821.25;5013088;28;20449;-65
2021/01/18 01:23:32;;;;;;;0.60;0.50;;;4.40;99.90;;;4.95;100.00;-20816.81;5010789;28;20548;-64
2021/01/18 01:25:59;;;;;;;0.70;0.60;;;4.40;99.90;;;4.95;100.00;-20816.81;5003406;28;20473;-64
2021/01/18 01:28:26;;;;;;;0.63;0.60;;;4.30;99.90;;;5.03;100.00;-20819.03;5014655;28;20429;-64
2021/01/18 01:30:53;;;;;;;0.60;0.50;;;4.40;99.90;;;5.08;100.00;-20820.41;5001993;28;20457;-67
2021/01/18 01:33:20;;;;;;;0.60;0.50;;;4.40;99.90;;;5.01;100.00;-20818.63;5015038;28;20472;-64
2021/01/18 01:35:48;;;;;;;0.60;0.50;;;4.40;99.90;;;4.95;100.00;-20816.81;5003446;28;20521;-65
2021/01/18 01:38:15;;;;;;;0.60;0.50;;;4.40;99.90;;;4.81;100.00;-20813.19;5013561;28;20438;-65
2021/01/18 01:40:42;;;;;;;0.60;0.53;;;4.30;99.90;;;4.67;100.00;-20809.28;5012584;28;20448;-64
2021/01/18 01:43:09;;;;;;;1.10;1.00;;;4.30;99.90;;;4.70;100.00;-20809.97;5013828;28;20481;-64
2021/01/18 01:45:36;;;;;;;0.83;0.83;;;4.30;99.90;;;4.75;100.00;-20811.50;5010971;28;20532;-64
2021/01/18 01:48:04;;;;;;;1.27;1.17;;;4.30;99.90;;;4.70;100.00;-20810.13;5014680;28;20931;-64
2021/01/18 01:50:34;;;;;;;0.60;0.50;;;4.30;99.90;;;4.92;100.00;-20815.97;5011506;28;20804;-64
2021/01/18 01:53:12;;;;;;;0.60;0.60;;;4.40;99.90;;;4.85;100.00;-20814.28;5013069;28;20458;-64
2021/01/18 01:55:39;;;;;;;0.60;0.52;;;4.40;99.90;;;4.87;100.00;-20814.72;5013980;28;20933;-64
2021/01/18 01:58:08;;;;;;;0.60;0.60;;;4.40;99.90;;;4.93;100.00;-20816.25;5014076;28;20547;-65
2021/01/18 02:00:39;;;;;;;0.60;0.50;;;4.30;99.90;;;5.07;100.00;-20820.13;5012396;28;20481;-64
2021/01/18 02:03:08;;;;;;;0.60;0.60;;;4.40;99.90;;;5.03;100.00;-20819.16;5014382;28;20453;-63
2021/01/18 02:05:37;;;;;;;0.60;0.50;;;4.40;99.90;;;4.98;100.00;-20817.63;5010230;28;20899;-64
2021/01/18 02:08:07;;;;;;;0.60;0.60;;;4.40;99.90;;;4.78;100.00;-20812.22;5011726;28;20444;-64
2021/01/18 02:10:35;;;;;;;0.60;0.50;;;4.30;99.90;;;4.84;100.00;-20814.00;5001110;28;20501;-64
2021/01/18 02:13:09;;;;;;;1.00;0.90;;;4.30;99.90;;;4.75;100.00;-20811.50;5012266;28;20434;-63
2021/01/18 02:15:49;;;;;;;0.60;0.50;;;4.30;99.90;;;4.92;100.00;-20816.09;5011841;28;20430;-64
2021/01/18 02:18:46;;;;;;;0.60;0.50;;;4.30;99.90;;;4.89;100.00;-20815.13;5014274;28;20488;-64
2021/01/18 02:22:15;;;;;;;0.60;0.60;;;4.40;99.90;;;4.83;100.00;-20813.75;5012760;28;20458;-67
2021/01/18 02:25:19;;;;;;;0.60;0.50;;;4.30;99.90;;;5.01;100.00;-20818.47;5011589;28;20457;-64
2021/01/18 02:28:18;;;;;;;0.60;0.50;;;4.40;99.90;;;5.03;100.00;-20819.03;5001797;28;20430;-64
2021/01/18 02:31:47;;;;;;;0.60;0.50;;;4.40;99.90;;;5.01;100.00;-20818.47;5013566;28;20890;-64
2021/01/18 02:35:11;;;;;;;0.60;0.50;;;4.40;99.90;;;4.83;100.00;-20813.75;5013466;28;20452;-64
2021/01/18 02:38:09;;;;;;;0.60;0.50;;;4.40;99.90;;;4.77;100.00;-20812.06;5017017;28;21020;-64
2021/01/18 02:40:49;;;;;;;0.60;0.60;;;4.30;99.90;;;4.84;100.00;-20813.88;5020160;28;20198;-64
2021/01/18 02:43:21;;;;;;;0.60;0.50;;;4.30;99.90;;;4.78;100.00;-20812.22;5011785;28;20508;-64
2021/01/18 02:45:51;;;;;;;0.60;0.50;;;4.30;99.90;;;4.69;100.00;-20809.84;5013580;28;20453;-64
2021/01/18 02:48:19;;;;;;;0.60;0.60;;;4.30;99.90;;;4.82;100.00;-20813.31;5008177;28;20439;-64
2021/01/18 02:50:48;;;;;;;0.60;0.50;;;4.30;99.90;;;4.79;100.00;-20812.63;5008665;28;20446;-63
2021/01/18 02:53:16;;;;;;;0.60;0.60;;;4.30;99.90;;;4.60;100.00;-20807.34;5012128;28;20508;-64
2021/01/18 02:55:44;;;;;;;0.60;0.60;;;4.20;99.90;;;4.78;100.00;-20812.34;5011067;28;20566;-64
2021/01/18 02:58:15;;;;;;;0.60;0.50;;;4.30;99.90;;;4.71;100.00;-20810.41;5012783;28;20997;-63
2021/01/18 03:00:56;;;;;;;0.60;0.50;;;4.30;99.90;;;4.76;100.00;-20811.78;5004608;28;20521;-64
2021/01/18 03:03:36;;;;;;;1.17;1.13;;;4.30;99.90;;;4.78;100.00;-20812.34;4997831;28;20465;-64
2021/01/18 03:06:15;;;;;;;0.60;0.55;;;4.20;99.90;;;4.59;100.00;-20807.19;5008615;28;20206;-64
2021/01/18 03:08:50;;;;;;;0.60;0.60;;;4.20;99.90;;;4.54;100.00;-20805.66;5011818;28;20553;-64
2021/01/18 03:11:34;;;;;;;0.60;0.50;;;4.10;99.90;;;4.54;100.00;-20805.66;4999288;28;20178;-64
2021/01/18 03:14:08;;;;;;;0.60;0.50;;;4.10;99.90;;;4.54;100.00;-20805.66;5013363;28;20206;-63
2021/01/18 03:16:41;;;;;;;0.60;0.50;;;4.10;99.90;;;4.49;100.00;-20804.25;5006696;28;20894;-64
2021/01/18 03:19:09;;;;;;;0.60;0.50;;;4.10;99.90;;;4.41;100.00;-20802.19;5011336;28;20210;-64
2021/01/18 03:21:36;;;;;;;0.60;0.50;;;4.00;99.90;;;4.36;100.00;-20800.94;5010010;28;21000;-64
2021/01/18 03:24:06;;;;;;;0.60;0.57;;;4.00;99.90;;;4.57;100.00;-20806.50;5010994;28;20187;-64
2021/01/18 03:26:33;;;;;;;0.60;0.50;;;4.10;99.90;;;4.42;100.00;-20802.31;5007527;28;20438;-63
2021/01/18 03:29:02;;;;;;;0.60;0.50;;;4.00;99.90;;;4.48;100.00;-20804.00;5012237;28;20472;-64
2021/01/18 03:31:29;;;;;;;0.60;0.60;;;4.10;99.90;;;4.60;100.00;-20807.34;4997890;28;20474;-64
2021/01/18 03:33:56;;;;;;;0.60;0.60;;;4.10;99.90;;;4.52;100.00;-20805.09;5009254;28;20187;-65
2021/01/18 03:36:23;;;;;;;0.60;0.50;;;4.10;99.90;;;4.52;100.00;-20805.09;5007993;28;20201;-64
2021/01/18 03:38:50;;;;;;;0.70;0.70;;;4.10;99.90;;;4.79;100.00;-20812.50;5002840;28;20501;-64
2021/01/18 03:41:19;;;;;;;0.60;0.50;;;4.10;99.90;;;4.65;100.00;-20808.72;4998079;28;20442;-63
2021/01/18 03:43:46;;;;;;;0.60;0.50;;;4.10;99.90;;;4.62;100.00;-20807.75;5011478;28;20265;-64
2021/01/18 03:46:13;;;;;;;0.60;0.50;;;4.10;99.90;;;4.63;100.00;-20808.16;5010356;28;20809;-64
2021/01/18 03:48:40;;;;;;;0.60;0.50;;;4.10;99.90;;;4.69;100.00;-20809.69;5012812;28;20201;-63
2021/01/18 03:51:07;;;;;;;0.60;0.50;;;4.10;99.90;;;4.70;100.00;-20810.13;5011697;28;20203;-63
2021/01/18 03:53:35;;;;;;;0.60;0.57;;;4.10;99.90;;;4.65;100.00;-20808.72;5011798;28;20508;-63
2021/01/18 03:56:02;;;;;;;0.60;0.50;;;4.10;99.90;;;4.71;100.00;-20810.41;5010977;28;20446;-65
2021/01/18 03:58:30;;;;;;;0.60;0.50;;;4.10;99.90;;;4.61;100.00;-20807.63;5012654;28;20469;-63
2021/01/18 04:00:57;;;;;;;0.60;0.50;;;4.10;99.90;;;4.56;100.00;-20806.22;5014695;28;20791;-64
2021/01/18 04:03:25;;;;;;;0.60;0.50;;;4.10;99.90;;;4.67;100.00;-20809.28;5016173;28;20561;-64
2021/01/18 04:05:52;;;;;;;0.60;0.50;;;4.10;99.90;;;4.53;100.00;-20805.53;5008514;28;20179;-63
2021/01/18 04:08:19;;;;;;;0.60;0.50;;;4.10;99.90;;;4.59;100.00;-20807.06;5010290;28;20648;-63
2021/01/18 04:10:46;;;;;;;0.60;0.50;;;4.10;99.90;;;4.59;100.00;-20807.06;4998881;28;20250;-63
2021/01/18 04:13:13;;;;;;;0.60;0.60;;;4.10;99.90;;;4.58;100.00;-20806.78;5015230;28;20465;-64
2021/01/18 04:15:40;;;;;;;0.60;0.50;;;4.10;99.90;;;4.56;100.00;-20806.22;5010485;28;20492;-64
2021/01/18 04:18:08;;;;;;;0.60;0.50;;;4.10;99.90;;;4.57;100.00;-20806.50;5011819;28;20469;-64
2021/01/18 04:20:35;;;;;;;0.60;0.50;;;4.10;99.90;;;4.43;100.00;-20802.59;5011262;28;20491;-63
2021/01/18 04:23:04;;;;;;;0.60;0.60;;;4.00;99.90;;;4.38;100.00;-20801.19;5012779;28;20206;-64
2021/01/18 04:25:32;;;;;;;0.60;0.50;;;4.00;99.90;;;4.56;100.00;-20806.34;5012803;28;20249;-64
2021/01/18 04:28:01;;;;;;;0.60;0.50;;;4.00;99.90;;;4.57;100.00;-20806.63;5003794;28;20206;-64
2021/01/18 04:30:31;;;;;;;0.60;0.50;;;4.10;99.90;;;4.57;100.00;-20806.50;5028390;28;20880;-66
2021/01/18 04:33:04;;;;;;;0.60;0.50;;;4.10;99.90;;;4.55;100.00;-20805.94;5013061;28;20435;-63
2021/01/18 04:35:34;;;;;;;0.60;0.50;;;4.10;99.90;;;4.51;100.00;-20804.81;5014098;28;20441;-64
2021/01/18 04:38:02;;;;;;;0.70;0.70;;;4.00;99.90;;;4.56;100.00;-20806.22;5008914;28;20473;-64
2021/01/18 04:40:31;;;;;;;0.60;0.50;;;4.00;99.90;;;4.68;100.00;-20809.44;5015216;28;20187;-63
2021/01/18 04:43:00;;;;;;;0.60;0.60;;;4.10;99.90;;;4.60;100.00;-20807.34;5014888;28;20997;-64
2021/01/18 04:45:30;;;;;;;0.60;0.50;;;4.10;99.90;;;4.58;100.00;-20806.78;5012479;28;20573;-63
2021/01/18 04:47:59;;;;;;;0.60;0.60;;;4.10;99.90;;;4.64;100.00;-20808.31;5015644;28;20511;-64
2021/01/18 04:50:28;;;;;;;0.60;0.60;;;4.10;99.90;;;4.66;100.00;-20808.88;5027067;28;20298;-65
2021/01/18 04:52:59;;;;;;;0.60;0.50;;;4.20;99.90;;;4.77;100.00;-20812.06;5005070;28;20234;-66
2021/01/18 04:55:31;;;;;;;0.60;0.50;;;4.20;99.90;;;4.77;100.00;-20812.06;5009673;28;20910;-64
2021/01/18 04:58:08;;;;;;;0.60;0.50;;;4.20;99.90;;;4.71;100.00;-20810.41;5015709;28;20464;-64
2021/01/18 05:00:44;;;;;;;0.60;0.50;;;4.20;99.90;;;4.72;100.00;-20810.53;5003964;28;20435;-64
2021/01/18 05:03:15;;;;;;;0.60;0.50;;;4.20;99.90;;;4.62;100.00;-20807.88;5014644;28;20489;-64
2021/01/18 05:06:26;;;;;;;0.60;0.50;;;4.10;99.90;;;4.64;100.00;-20808.31;5014905;28;20449;-64
2021/01/18 05:09:23;;;;;;;0.60;0.50;;;4.10;99.90;;;4.43;100.00;-20802.75;5014543;28;20484;-65
2021/01/18 05:11:51;;;;;;;0.60;0.50;;;4.00;99.90;;;4.44;100.00;-20802.88;5004902;28;20183;-64
2021/01/18 05:14:18;;;;;;;0.60;0.50;;;4.00;99.90;;;4.42;100.00;-20802.47;5029313;28;20509;-64
2021/01/18 05:16:53;;;;;;;0.60;0.50;;;4.00;99.90;;;4.42;100.00;-20802.31;5012521;28;20480;-65
2021/01/18 05:19:24;;;;;;;0.60;0.50;;;4.00;99.90;;;4.50;100.00;-20804.69;5015301;28;20434;-64
2021/01/18 05:21:51;;;;;;;0.60;0.60;;;4.00;99.90;;;4.53;100.00;-20805.53;5011770;28;20430;-63
2021/01/18 05:24:20;;;;;;;0.60;0.60;;;4.10;99.90;;;4.60;100.00;-20807.47;5007040;28;20461;-64
2021/01/18 05:27:07;;;;;;;0.60;0.50;;;4.10;99.90;;;4.36;100.00;-20800.94;5015131;28;20941;-64
2021/01/18 05:29:37;;;;;;;0.60;0.50;;;4.10;99.90;;;4.56;100.00;-20806.22;5009663;28;20453;-64
2021/01/18 05:32:22;;;;;;;0.60;0.60;;;4.10;99.90;;;4.59;100.00;-20807.06;5013751;28;20442;-65
2021/01/18 05:35:10;;;;;;;0.60;0.60;;;4.10;99.90;;;4.42;100.00;-20802.31;5014537;28;20182;-65
2021/01/18 05:37:53;;;;;;;0.60;0.55;;;4.10;99.90;;;4.44;100.00;-20802.88;5001542;28;20457;-64
2021/01/18 05:40:22;;;;;;;0.60;0.60;;;4.10;99.90;;;4.47;100.00;-20803.72;4998773;28;20648;-64
2021/01/18 05:42:50;;;;;;;0.60;0.50;;;4.10;99.90;;;4.50;100.00;-20804.69;5004272;28;20199;-64
2021/01/18 05:45:31;;;;;;;0.60;0.50;;;4.00;99.90;;;4.55;100.00;-20805.94;5013341;28;20226;-63
2021/01/18 05:47:59;;;;;;;0.60;0.60;;;4.10;99.90;;;4.48;100.00;-20804.00;5015124;28;20461;-64
2021/01/18 05:50:28;;;;;;;0.60;0.60;;;4.10;99.90;;;4.45;100.00;-20803.28;5010534;28;20533;-64
2021/01/18 05:52:56;;;;;;;0.60;0.60;;;4.00;99.90;;;4.39;100.00;-20801.47;5000821;28;20642;-65
2021/01/18 05:55:28;;;;;;;0.60;0.50;;;4.00;99.90;;;4.54;100.00;-20805.66;5004546;28;20437;-64
2021/01/18 05:57:57;;;;;;;0.60;0.50;;;4.10;99.90;;;4.51;100.00;-20804.81;5013413;28;20206;-65
2021/01/18 06:00:30;;;;;;;0.60;0.60;;;4.10;99.90;;;4.47;100.00;-20803.72;5020544;28;20215;-71
2021/01/18 06:02:59;;;;;;;0.60;0.50;;;4.10;99.90;;;4.44;100.00;-20802.88;5014238;28;20245;-71
2021/01/18 06:05:33;;;;;;;0.60;0.50;;;4.00;99.90;;;4.41;100.00;-20802.03;5009594;28;20492;-71
2021/01/18 06:08:15;;;;;;;0.60;0.50;;;4.00;99.90;;;4.36;100.00;-20800.94;5025642;28;20242;-70
2021/01/18 06:10:45;;;;;;;0.60;0.50;;;4.10;99.90;;;4.52;100.00;-20805.09;4997964;28;20435;-71
2021/01/18 06:13:24;;;;;;;0.60;0.50;;;4.10;99.90;;;4.54;100.00;-20805.66;5013391;28;20492;-70
2021/01/18 06:16:09;;;;;;;0.60;0.60;;;4.10;99.90;;;4.55;100.00;-20806.06;5009750;28;20906;-71
2021/01/18 06:18:38;;;;;;;0.60;0.50;;;4.10;99.90;;;4.42;100.00;-20802.31;5012661;28;20930;-69
2021/01/18 06:21:09;;;;;;;0.60;0.50;;;4.00;99.90;;;4.43;100.00;-20802.59;5010802;28;20280;-70
2021/01/18 06:23:36;;;;;;;0.60;0.60;;;4.00;99.90;;;4.62;100.00;-20807.88;5010117;28;20493;-70
2021/01/18 06:26:03;;;;;;;0.80;0.80;;;4.10;99.90;;;4.49;100.00;-20804.25;5011480;28;20478;-69
2021/01/18 06:28:33;;;;;;;0.60;0.50;;;4.10;99.90;;;4.52;100.00;-20805.09;5028831;28;20461;-70
2021/01/18 06:31:02;;;;;;;0.60;0.53;;;4.10;99.90;;;4.36;100.00;-20800.94;5011693;28;20488;-70
2021/01/18 06:33:37;;;;;;;0.60;0.50;;;4.00;99.90;;;4.38;100.00;-20801.19;5014015;28;20426;-70
2021/01/18 06:36:15;;;;;;;0.60;0.60;;;4.00;99.90;;;4.63;100.00;-20808.16;5013487;28;20437;-71
2021/01/18 06:38:46;;;;;;;2.70;0.87;;;4.10;99.90;;;4.78;100.00;-20812.22;5011920;28;20851;-70
2021/01/18 06:41:13;;;;;;;0.60;0.60;;;4.20;99.90;;;4.72;100.00;-20810.69;5012094;28;20446;-70
2021/01/18 06:43:46;;;;;;;0.60;0.60;;;4.20;99.90;;;4.65;100.00;-20808.59;5013199;28;20497;-70
2021/01/18 06:46:19;;;;;;;0.70;0.60;;;4.20;99.90;;;4.53;100.00;-20805.53;5011722;28;20457;-71
2021/01/18 06:48:48;;;;;;;0.60;0.50;;;4.20;99.90;;;4.67;100.00;-20809.28;5013398;28;20199;-71
2021/01/18 06:51:18;;;;;;;0.60;0.50;;;4.30;99.90;;;4.83;100.00;-20813.59;5015950;28;20473;-71
2021/01/18 06:53:48;;;;;;;0.60;0.50;;;4.30;99.90;;;4.74;100.00;-20811.09;5012907;28;20438;-71
2021/01/18 06:56:49;;;;;;;0.60;0.60;;;4.30;99.90;;;4.66;100.00;-20808.88;5010079;28;20438;-71
2021/01/18 06:59:39;;;;;;;0.60;0.50;;;4.30;99.90;;;4.63;100.00;-20808.03;5011225;28;21360;-71
2021/01/18 07:02:22;;;;;;;0.60;0.52;;;4.30;99.90;;;4.55;100.00;-20805.94;5010407;28;20215;-71
2021/01/18 07:04:51;;;;;;;0.60;0.50;;;4.20;99.90;;;4.67;100.00;-20809.28;5011239;28;20718;-69
2021/01/18 07:07:26;;;;;;;0.60;0.60;;;4.20;99.90;;;4.76;100.00;-20811.66;5012965;28;20191;-69
2021/01/18 07:09:58;;;;;;;0.60;0.60;;;4.30;99.90;;;4.67;100.00;-20809.28;5008578;28;20449;-70
2021/01/18 07:12:27;;;;;;;0.60;0.50;;;4.30;99.90;;;4.56;100.00;-20806.22;5009569;28;20445;-71
2021/01/18 07:15:00;;;;;;;0.60;0.50;;;4.20;99.90;;;4.58;100.00;-20806.78;5009211;28;20466;-70
2021/01/18 07:17:50;;;;;;;0.60;0.50;;;4.30;99.90;;;4.72;100.00;-20810.53;5013091;28;21033;-71
2021/01/18 07:20:24;;;;;;;0.60;0.50;;;4.30;99.90;;;4.67;100.00;-20809.28;5004719;28;20812;-68
2021/01/18 07:23:37;;;;;;;0.60;0.50;;;4.30;99.90;;;4.78;100.00;-20812.34;5011844;28;20458;-71
2021/01/18 07:26:53;;;;;;;0.60;0.50;;;4.30;99.90;;;4.77;100.00;-20811.94;5003319;28;20442;-71
2021/01/18 07:29:22;;;;;;;0.60;0.50;;;4.30;99.90;;;4.82;100.00;-20813.47;5006119;28;20814;-71
2021/01/18 07:31:53;;;;;;;0.60;0.50;;;4.30;99.90;;;4.80;100.00;-20812.91;5008607;28;20460;-71
2021/01/18 07:34:22;;;;;;;0.60;0.60;;;4.30;99.90;;;4.90;100.00;-20815.41;5012200;28;20427;-70
2021/01/18 07:36:50;;;;;;;0.60;0.50;;;4.40;99.90;;;4.97;100.00;-20817.50;5016792;28;20433;-69
2021/01/18 07:39:27;;;;;;;0.60;0.60;;;4.40;99.90;;;5.08;100.00;-20820.41;5008448;28;20438;-71
2021/01/18 07:41:54;;;;;;;0.60;0.50;;;4.50;99.90;;;5.05;100.00;-20819.59;5016612;28;20814;-71
2021/01/18 07:44:35;;;;;;;0.60;0.50;;;4.50;99.90;;;5.03;100.00;-20819.03;5026957;28;20481;-70
2021/01/18 07:47:06;;;;;;;0.60;0.50;;;4.50;99.90;;;4.94;100.00;-20816.53;5029785;28;20456;-71
2021/01/18 07:49:44;;;;;;;0.60;0.50;;;4.50;99.90;;;5.07;100.00;-20820.13;5014333;28;20785;-71
2021/01/18 07:52:30;;;;;;;1.10;1.10;;;4.60;99.90;;;4.98;100.00;-20817.63;5015964;28;20821;-70
2021/01/18 07:54:59;;;;;;;0.60;0.50;;;4.60;99.90;;;5.05;100.00;-20819.72;5012990;28;20429;-71
2021/01/18 07:57:40;;;;;;;0.70;0.70;;;4.60;99.90;;;4.99;100.00;-20817.91;5016766;28;20461;-71
2021/01/18 08:00:30;;;;;;;0.60;0.50;;;4.60;99.90;;;5.08;100.00;-20820.41;5014186;28;20811;-70
2021/01/18 08:03:27;;;;;;;0.60;0.57;;;4.60;99.90;;;5.02;100.00;-20818.88;5015916;28;20457;-70
2021/01/18 08:06:16;;;;;;;0.60;0.50;;;4.60;99.90;;;5.02;100.00;-20818.75;5014862;28;20432;-71
2021/01/18 08:08:43;;;;;;;0.60;0.50;;;4.60;99.90;;;5.09;100.00;-20820.84;5009238;28;20534;-70
2021/01/18 08:11:19;;;;;;;0.60;0.50;;;4.70;99.90;;;5.17;100.00;-20822.94;5008388;28;20441;-72
2021/01/18 08:13:55;;;;;;;0.60;0.50;;;4.70;99.90;;;5.30;100.00;-20826.56;5013243;28;20465;-71
2021/01/18 08:16:39;;;;;;;0.60;0.53;;;4.80;99.90;;;5.30;100.00;-20826.56;5015058;28;20441;-70
2021/01/18 08:19:18;;;;;;;0.60;0.50;;;4.80;99.90;;;5.35;100.00;-20827.66;5014282;28;20805;-71
2021/01/18 08:21:57;;;;;;;0.60;0.50;;;4.80;99.90;;;5.30;100.00;-20826.56;5012638;28;20445;-71
2021/01/18 08:24:51;;;;;;;0.60;0.60;;;4.80;99.90;;;5.12;100.00;-20821.41;5012701;28;20803;-71
2021/01/18 08:27:58;;;;;;;1.53;1.43;;;4.80;99.90;;;5.07;100.00;-20820.13;5030980;28;20429;-70
2021/01/18 08:30:33;;;;;;;0.60;0.60;;;4.80;99.90;;;5.36;100.00;-20828.06;5009510;28;20474;-71
2021/01/18 08:33:06;;;;;;;0.60;0.50;;;4.80;99.90;;;5.37;100.00;-20828.22;5013326;28;20499;-70
2021/01/18 08:35:57;;;;;;;0.70;0.70;;;4.90;99.90;;;5.39;100.00;-20828.78;5014144;28;20475;-70
2021/01/18 08:38:29;;;;;;;0.60;0.60;;;4.90;99.90;;;5.28;100.00;-20825.84;5013239;28;20440;-71
2021/01/18 08:41:08;;;;;;;0.83;0.83;;;5.00;99.90;;;5.62;100.00;-20835.03;5015924;28;20438;-69
2021/01/18 08:43:48;;;;;;;0.60;0.50;;;5.00;99.90;;;5.72;100.00;-20837.81;5013883;28;20499;-71
2021/01/18 08:46:35;;;;;;;0.60;0.50;;;5.10;99.90;;;5.73;100.00;-20838.09;5009105;28;20480;-70
2021/01/18 08:49:23;;;;;;;0.60;0.50;;;5.10;99.90;;;5.82;100.00;-20840.75;5014368;28;20434;-69
2021/01/18 08:51:52;;;;;;;0.60;0.50;;;5.20;99.90;;;5.87;100.00;-20841.84;5014524;28;20441;-70
2021/01/18 08:54:30;;;;;;;0.60;0.50;;;5.20;99.90;;;5.94;100.00;-20843.81;5029059;28;20445;-71
2021/01/18 08:57:23;;;;;;;2.03;1.17;;;5.20;99.90;;;5.95;100.00;-20844.09;5010850;28;20454;-70
2021/01/18 09:00:18;;;;;;;0.60;0.60;;;5.30;99.90;;;5.89;100.00;-20842.56;5006192;28;20468;-71
2021/01/18 09:02:48;;;;;;;0.60;0.50;;;5.30;99.90;;;5.99;100.00;-20845.19;4997228;28;20459;-71
2021/01/18 09:05:18;;;;;;;0.70;0.70;;;5.40;99.90;;;6.15;100.00;-20849.50;5011663;28;20805;-71
2021/01/18 09:07:46;;;;;;;0.60;0.50;;;5.40;99.90;;;6.05;100.00;-20847.00;5013855;28;20438;-69
2021/01/18 09:10:15;;;;;;;0.60;0.50;;;5.40;99.90;;;6.24;100.00;-20852.16;5011190;28;20438;-71
2021/01/18 09:12:44;;;;;;;0.60;0.60;;;5.50;99.90;;;6.33;100.00;-20854.50;5013406;28;20446;-71
2021/01/18 09:15:13;;;;;;;0.60;0.50;;;5.50;99.90;;;6.41;100.00;-20856.59;5007503;28;20464;-70
2021/01/18 09:17:41;;;;;;;0.60;0.50;;;5.50;99.90;;;6.19;100.00;-20850.75;5014406;28;20438;-70
2021/01/18 09:20:11;;;;;;;0.60;0.50;;;5.60;99.90;;;6.32;100.00;-20854.09;5012010;28;20452;-70
2021/01/18 09:22:44;;;;;;;0.60;0.60;;;5.60;99.90;;;6.08;100.00;-20847.56;5013781;28;20842;-70
2021/01/18 09:25:16;;;;;;;0.60;0.60;;;5.60;99.90;;;6.07;100.00;-20847.41;5006969;28;20920;-72
2021/01/18 09:27:43;;;;;;;0.90;0.90;;;5.60;99.90;;;6.37;100.00;-20855.47;5014656;28;20435;-70
2021/01/18 09:30:15;;;;;;;1.47;1.37;;;5.60;99.90;;;6.37;100.00;-20855.47;5014431;28;20469;-70
2021/01/18 09:32:54;;;;;;;0.70;0.60;;;5.70;99.90;;;6.61;100.00;-20862.16;5014348;28;20445;-71
2021/01/18 09:35:25;;;;;;;0.60;0.60;;;5.80;99.90;;;6.47;100.00;-20858.25;5000940;28;20428;-70
2021/01/18 09:37:52;;;;;;;0.60;0.60;;;5.90;99.90;;;6.40;100.00;-20856.31;5013805;28;20419;-70
2021/01/18 09:40:36;;;;;;;0.70;0.60;;;5.90;99.90;;;6.80;100.00;-20867.28;5025685;28;20524;-72
2021/01/18 09:43:05;;;;;;;0.70;0.60;;;6.00;99.90;;;6.98;100.00;-20872.16;5014689;28;20487;-71
2021/01/18 09:45:33;;;;;;;0.70;0.60;;;6.00;99.90;;;6.94;100.00;-20871.06;5019213;28;20455;-70
2021/01/18 09:48:03;;;;;;;0.70;0.70;;;6.10;99.90;;;7.04;100.00;-20873.81;5011726;28;20444;-69
2021/01/18 09:50:32;;;;;;;0.70;0.70;;;6.10;99.90;;;6.75;100.00;-20865.91;5008282;28;20446;-70
2021/01/18 09:53:03;;;;;;;0.60;0.60;;;6.10;99.90;;;6.71;100.00;-20864.78;5012836;28;20918;-69
2021/01/18 09:55:32;;;;;;;0.60;0.60;;;6.10;99.90;;;7.00;100.00;-20872.72;5012584;28;20431;-70
2021/01/18 09:58:08;;;;;;;0.80;0.80;;;6.20;99.90;;;6.97;100.00;-20871.88;5012289;28;20431;-70
2021/01/18 10:00:38;;;;;;;0.70;0.60;;;6.20;99.90;;;7.15;100.00;-20876.75;5009544;28;20430;-69
2021/01/18 10:03:08;;;;;;;0.63;0.60;;;6.30;99.90;;;7.20;100.00;-20878.28;5012941;28;20464;-71
2021/01/18 10:05:39;;;;;;;0.67;0.60;;;6.20;99.90;;;6.94;100.00;-20871.19;5023992;28;20538;-71
2021/01/18 10:08:12;;;;;;;0.60;0.57;;;6.30;99.90;;;6.95;100.00;-20871.31;5010225;28;20466;-71
2021/01/18 10:10:45;;;;;;;0.60;0.60;;;6.30;99.90;;;7.05;100.00;-20874.09;4998389;28;20917;-70
2021/01/18 10:13:17;;;;;;;0.70;0.60;;;6.30;99.90;;;6.97;100.00;-20871.88;5012710;28;20430;-72
2021/01/18 10:15:45;;;;;;;0.70;0.60;;;6.30;99.90;;;6.97;100.00;-20871.88;5012579;28;20430;-69
2021/01/18 10:18:31;;;;;;;0.60;0.50;;;6.20;99.90;;;6.96;100.00;-20871.59;5012834;28;20499;-71
2021/01/18 10:20:59;;;;;;;0.70;0.70;;;6.20;99.90;;;6.92;100.00;-20870.50;5010091;28;20991;-69
2021/01/18 10:23:31;;;;;;;3.50;1.57;;;6.20;99.90;;;7.11;100.00;-20875.78;5009380;28;20455;-70
2021/01/18 10:26:18;;;;;;;0.60;0.60;;;6.30;99.90;;;7.24;100.00;-20879.38;5012707;28;20511;-70
2021/01/18 10:28:55;;;;;;;0.60;0.50;;;6.20;99.90;;;6.92;100.00;-20870.63;5005425;28;20468;-71
2021/01/18 10:31:25;;;;;;;0.70;0.60;;;6.20;99.90;;;6.75;100.00;-20866.03;5008951;28;20443;-70
2021/01/18 10:34:11;;;;;;;0.60;0.50;;;6.20;99.90;;;6.64;100.00;-20863.00;5004330;28;20466;-70
2021/01/18 10:36:39;;;;;;;0.60;0.50;;;6.20;99.90;;;6.85;100.00;-20868.69;5002019;28;20444;-70
2021/01/18 10:39:07;;;;;;;0.60;0.50;;;6.30;99.90;;;7.07;100.00;-20874.66;5009985;28;20803;-70
2021/01/18 10:41:36;;;;;;;0.73;0.70;;;6.40;99.90;;;7.48;100.00;-20885.78;5012605;28;20444;-70
2021/01/18 10:44:20;;;;;;;0.60;0.60;;;6.40;99.90;;;7.06;100.00;-20874.25;5009637;28;20834;-71
2021/01/18 10:46:50;;;;;;;0.80;0.70;;;6.30;99.90;;;7.24;100.00;-20879.38;5024907;28;20446;-71
2021/01/18 10:49:30;;;;;;;0.60;0.50;;;6.30;99.90;;;7.21;100.00;-20878.53;5008799;28;20435;-70